createdAt,value
2022-08-26T00:01:07.069Z,70.59
2022-08-26T00:05:10.632Z,70.35
2022-08-26T00:09:16.194Z,71.01
2022-08-26T00:13:19.989Z,71.10
2022-08-26T00:17:24.850Z,70.91
2022-08-26T00:21:29.767Z,71.08
2022-08-26T00:25:33.769Z,70.79
2022-08-26T00:29:37.592Z,71.36
2022-08-26T00:33:43.019Z,71.07
2022-08-26T00:37:47.907Z,70.95
2022-08-26T00:41:51.248Z,71.34
2022-08-26T00:46:00.813Z,71.47
2022-08-26T00:50:12.005Z,71.26
2022-08-26T00:54:17.398Z,71.18
2022-08-26T00:58:21.404Z,71.75
2022-08-26T01:02:25.261Z,71.81
2022-08-26T01:06:30.049Z,71.84
2022-08-26T01:10:33.996Z,71.87
2022-08-26T01:14:37.997Z,72.47
2022-08-26T01:18:44.861Z,72.36
2022-08-26T01:22:56.890Z,72.66
2022-08-26T01:27:03.622Z,72.86
2022-08-26T01:31:14.312Z,73.07
2022-08-26T01:35:17.969Z,73.28
2022-08-26T01:39:22.983Z,73.44
2022-08-26T01:43:29.087Z,73.83
2022-08-26T01:47:36.711Z,73.73
2022-08-26T01:51:41.146Z,73.87
2022-08-26T01:55:49.390Z,73.89
2022-08-26T01:59:56.295Z,74.04
2022-08-26T02:04:06.384Z,74.13
2022-08-26T02:08:09.621Z,74.34
2022-08-26T02:12:18.426Z,74.49
2022-08-26T02:16:25.385Z,74.42
2022-08-26T02:20:29.905Z,74.28
2022-08-26T02:24:50.700Z,74.24
2022-08-26T02:29:00.060Z,74.60
2022-08-26T02:33:05.117Z,74.28
2022-08-26T02:37:11.199Z,74.42
2022-08-26T02:41:14.259Z,74.52
2022-08-26T02:45:23.296Z,74.64
2022-08-26T02:49:30.648Z,74.55
2022-08-26T02:53:35.413Z,74.54
2022-08-26T02:57:39.022Z,74.96
2022-08-26T03:01:45.165Z,75.13
2022-08-26T03:05:48.708Z,74.88
2022-08-26T03:09:53.045Z,75.21
2022-08-26T03:13:56.343Z,75.41
2022-08-26T03:18:00.813Z,75.40
2022-08-26T03:22:04.835Z,75.88
2022-08-26T03:26:10.890Z,75.55
2022-08-26T03:30:33.483Z,75.95
2022-08-26T03:34:38.683Z,76.23
2022-08-26T03:38:42.073Z,76.62
2022-08-26T03:42:46.810Z,76.46
2022-08-26T03:46:49.988Z,76.29
2022-08-26T03:50:54.601Z,76.42
2022-08-26T03:54:58.931Z,76.54
2022-08-26T03:59:02.349Z,76.37
2022-08-26T04:03:05.806Z,76.78
2022-08-26T04:07:14.803Z,76.61
2022-08-26T04:11:19.946Z,76.50
2022-08-26T04:15:23.351Z,76.64
2022-08-26T04:19:27.046Z,77.12
2022-08-26T04:23:31.768Z,76.79
2022-08-26T04:27:50.660Z,77.04
2022-08-26T04:31:56.064Z,77.37
2022-08-26T04:36:03.340Z,77.57
2022-08-26T04:40:10.101Z,77.71
2022-08-26T04:44:13.793Z,77.71
2022-08-26T04:48:17.001Z,77.94
2022-08-26T04:52:21.415Z,77.99
2022-08-26T04:56:28.731Z,78.22
2022-08-26T05:00:31.892Z,78.25
2022-08-26T05:04:35.391Z,78.70
2022-08-26T05:08:38.490Z,78.90
2022-08-26T05:12:43.185Z,78.58
2022-08-26T05:16:48.035Z,79.09
2022-08-26T05:20:55.147Z,78.87
2022-08-26T05:29:02.619Z,79.21
2022-08-26T05:33:07.787Z,79.40
2022-08-26T05:37:11.176Z,79.61
2022-08-26T05:41:19.678Z,79.25
2022-08-26T05:45:26.725Z,79.56
2022-08-26T05:49:29.950Z,79.68
2022-08-26T05:53:33.845Z,79.63
2022-08-26T05:57:42.152Z,79.78
2022-08-26T06:01:47.577Z,79.46
2022-08-26T06:05:50.974Z,79.75
2022-08-26T06:10:01.617Z,79.69
2022-08-26T06:14:18.022Z,79.49
2022-08-26T06:18:27.641Z,79.43
2022-08-26T06:22:49.161Z,79.30
2022-08-26T06:26:54.561Z,78.96
2022-08-26T06:31:00.909Z,78.96
2022-08-26T06:35:07.389Z,78.74
2022-08-26T06:39:17.457Z,78.43
2022-08-26T06:43:25.923Z,78.01
2022-08-26T06:47:29.481Z,78.56
2022-08-26T06:51:36.825Z,77.48
2022-08-26T06:55:41.864Z,77.92
2022-08-26T06:59:45.486Z,77.62
2022-08-26T07:03:50.732Z,77.95
2022-08-26T07:07:55.915Z,77.37
2022-08-26T07:11:59.026Z,77.36
2022-08-26T07:16:04.467Z,76.80
2022-08-26T07:20:09.520Z,77.16
2022-08-26T07:24:14.199Z,76.31
2022-08-26T07:28:18.014Z,76.13
2022-08-26T07:32:22.958Z,76.25
2022-08-26T07:36:28.487Z,75.35
2022-08-26T07:40:34.087Z,75.58
2022-08-26T07:44:37.916Z,74.86
2022-08-26T07:48:53.448Z,74.25
2022-08-26T07:52:57.506Z,73.82
2022-08-26T07:57:02.203Z,73.84
2022-08-26T08:01:11.759Z,72.72
2022-08-26T08:05:42.646Z,72.35
2022-08-26T08:09:51.349Z,72.00
2022-08-26T08:13:56.943Z,71.07
2022-08-26T08:18:01.159Z,71.23
2022-08-26T08:22:29.955Z,71.25
2022-08-26T08:26:35.233Z,70.21
2022-08-26T08:30:41.894Z,69.18
2022-08-26T08:34:45.661Z,68.34
2022-08-26T08:38:49.017Z,68.60
2022-08-26T08:42:59.229Z,67.67
2022-08-26T08:47:07.532Z,66.25
2022-08-26T08:51:22.726Z,66.12
2022-08-26T08:55:30.916Z,65.94
2022-08-26T08:59:38.444Z,65.36
2022-08-26T09:03:53.506Z,64.51
2022-08-26T09:08:02.658Z,64.32
2022-08-26T09:12:08.702Z,63.45
2022-08-26T09:16:19.032Z,63.48
2022-08-26T09:20:36.321Z,63.41
2022-08-26T09:24:48.566Z,62.62
2022-08-26T09:28:57.589Z,61.63
2022-08-26T09:33:10.240Z,60.98
2022-08-26T09:37:35.816Z,59.58
2022-08-26T09:41:39.094Z,58.98
2022-08-26T09:45:50.295Z,58.45
2022-08-26T09:50:09.665Z,57.92
2022-08-26T09:54:30.450Z,57.58
2022-08-26T09:58:38.380Z,56.75
2022-08-26T10:02:47.930Z,57.07
2022-08-26T10:06:58.306Z,56.51
2022-08-26T10:11:08.137Z,56.12
2022-08-26T10:15:14.098Z,55.46
2022-08-26T10:19:22.795Z,56.06
2022-08-26T10:23:29.421Z,55.55
2022-08-26T10:27:52.654Z,54.92
2022-08-26T10:32:03.491Z,55.12
2022-08-26T10:36:39.338Z,53.83
2022-08-26T10:40:56.252Z,53.04
2022-08-26T10:45:11.862Z,53.12
2022-08-26T10:49:18.897Z,52.19
2022-08-26T10:53:32.945Z,52.64
2022-08-26T10:57:45.403Z,51.43
2022-08-26T11:01:57.679Z,51.53
2022-08-26T11:06:23.747Z,50.89
2022-08-26T11:11:03.342Z,50.31
2022-08-26T11:15:08.285Z,50.51
2022-08-26T11:20:01.431Z,49.87
2022-08-26T11:24:07.559Z,49.91
2022-08-26T11:28:10.973Z,49.87
2022-08-26T11:32:26.399Z,48.56
2022-08-26T11:36:43.899Z,47.10
2022-08-26T11:40:58.793Z,47.12
2022-08-26T11:45:05.669Z,47.69
2022-08-26T11:49:09.343Z,47.48
2022-08-26T11:53:19.271Z,46.36
2022-08-26T11:57:24.356Z,46.63
2022-08-26T12:01:31.320Z,45.79
2022-08-26T12:05:38.209Z,46.08
2022-08-26T12:09:54.680Z,45.18
2022-08-26T12:14:02.627Z,45.60
2022-08-26T12:18:28.827Z,44.93
2022-08-26T12:22:35.973Z,44.86
2022-08-26T12:26:39.574Z,44.69
2022-08-26T12:31:00.218Z,45.08
2022-08-26T12:39:13.407Z,44.58
2022-08-26T12:43:38.521Z,44.15
2022-08-26T12:47:44.852Z,44.04
2022-08-26T12:51:51.390Z,43.73
2022-08-26T12:55:56.562Z,43.75
2022-08-26T13:00:40.249Z,42.72
2022-08-26T13:04:46.218Z,43.20
2022-08-26T13:08:51.437Z,42.34
2022-08-26T13:12:55.207Z,40.48
2022-08-26T13:16:58.331Z,40.65
2022-08-26T13:21:10.021Z,40.92
2022-08-26T13:25:13.143Z,41.97
2022-08-26T13:29:17.320Z,41.47
2022-08-26T13:33:21.637Z,41.48
2022-08-26T13:37:34.452Z,41.79
2022-08-26T13:41:38.061Z,41.99
2022-08-26T13:45:41.118Z,42.44
2022-08-26T13:49:44.725Z,42.56
2022-08-26T13:53:49.143Z,41.64
2022-08-26T13:57:52.359Z,41.66
2022-08-26T14:01:55.628Z,42.01
2022-08-26T14:05:59.414Z,41.96
2022-08-26T14:10:04.565Z,40.83
2022-08-26T14:14:07.687Z,41.59
2022-08-26T14:18:13.540Z,41.74
2022-08-26T14:22:22.196Z,42.05
2022-08-26T14:26:29.134Z,41.48
2022-08-26T14:30:33.061Z,41.77
2022-08-26T14:34:36.333Z,41.14
2022-08-26T14:38:39.363Z,41.72
2022-08-26T14:42:47.894Z,41.73
2022-08-26T14:46:55.975Z,41.90
2022-08-26T14:50:59.269Z,42.08
2022-08-26T14:55:02.367Z,41.79
2022-08-26T14:59:07.238Z,41.75
2022-08-26T15:03:10.474Z,42.34
2022-08-26T15:07:13.633Z,42.60
2022-08-26T15:11:18.359Z,41.95
2022-08-26T15:15:22.866Z,41.92
2022-08-26T15:19:27.154Z,41.00
2022-08-26T15:23:30.263Z,41.16
2022-08-26T15:27:33.880Z,41.31
2022-08-26T15:31:38.601Z,41.56
2022-08-26T15:35:42.915Z,42.37
2022-08-26T15:39:46.275Z,42.10
2022-08-26T15:43:49.449Z,41.38
2022-08-26T15:48:01.386Z,42.10
2022-08-26T15:52:06.081Z,42.30
2022-08-26T15:56:09.344Z,42.51
2022-08-26T16:00:14.957Z,42.20
2022-08-26T16:04:20.168Z,42.41
2022-08-26T16:08:23.328Z,42.69
2022-08-26T16:12:26.582Z,41.77
2022-08-26T16:16:30.139Z,42.11
2022-08-26T16:20:37.356Z,42.48
2022-08-26T16:24:40.624Z,42.94
2022-08-26T16:28:44.498Z,42.26
2022-08-26T16:32:48.189Z,42.59
2022-08-26T16:36:53.059Z,42.98
2022-08-26T16:40:56.122Z,43.64
2022-08-26T16:44:59.631Z,43.51
2022-08-26T16:49:04.416Z,43.88
2022-08-26T16:57:17.886Z,43.89
2022-08-26T17:01:21.930Z,44.57
2022-08-26T17:05:26.463Z,44.49
2022-08-26T17:09:31.471Z,44.84
2022-08-26T17:13:36.192Z,45.39
2022-08-26T17:17:40.677Z,45.66
2022-08-26T17:21:44.072Z,45.69
2022-08-26T17:25:49.608Z,46.14
2022-08-26T17:29:52.899Z,47.10
2022-08-26T17:33:56.840Z,47.11
2022-08-26T17:38:00.625Z,47.45
2022-08-26T17:42:05.742Z,47.66
2022-08-26T17:46:11.727Z,47.95
2022-08-26T17:50:18.562Z,48.63
2022-08-26T17:54:21.727Z,48.93
2022-08-26T17:58:26.385Z,49.51
2022-08-26T18:02:32.247Z,50.06
2022-08-26T18:06:35.884Z,50.64
2022-08-26T18:10:39.279Z,50.82
2022-08-26T18:14:44.015Z,51.23
2022-08-26T18:18:48.305Z,51.34
2022-08-26T18:22:51.427Z,51.71
2022-08-26T18:26:54.535Z,51.95
2022-08-26T18:30:59.223Z,52.34
2022-08-26T18:35:02.814Z,52.53
2022-08-26T18:39:07.563Z,52.94
2022-08-26T18:43:10.677Z,52.95
2022-08-26T18:47:15.051Z,53.64
2022-08-26T18:51:18.883Z,53.37
2022-08-26T18:55:22.151Z,53.50
2022-08-26T18:59:28.802Z,54.20
2022-08-26T19:03:35.029Z,54.72
2022-08-26T19:07:39.695Z,55.00
2022-08-26T19:11:43.329Z,55.44
2022-08-26T19:15:46.732Z,55.55
2022-08-26T19:19:53.525Z,55.35
2022-08-26T19:23:58.029Z,55.71
2022-08-26T19:28:01.366Z,55.91
2022-08-26T19:32:05.621Z,56.35
2022-08-26T19:36:15.751Z,57.53
2022-08-26T19:40:19.050Z,57.91
2022-08-26T19:44:41.407Z,58.70
2022-08-26T19:48:45.668Z,58.93
2022-08-26T19:52:50.409Z,58.83
2022-08-26T19:56:53.709Z,59.15
2022-08-26T20:00:56.904Z,59.79
2022-08-26T20:05:00.256Z,59.86
2022-08-26T20:09:04.896Z,59.52
2022-08-26T20:13:08.664Z,60.02
2022-08-26T20:17:12.448Z,59.70
2022-08-26T20:21:27.835Z,59.27
2022-08-26T20:25:33.628Z,59.39
2022-08-26T20:29:38.501Z,59.46
2022-08-26T20:33:46.484Z,59.74
2022-08-26T20:37:50.150Z,60.20
2022-08-26T20:41:55.176Z,60.45
2022-08-26T20:45:58.590Z,60.85
2022-08-26T20:50:02.499Z,60.59
2022-08-26T20:54:06.544Z,61.01
2022-08-26T20:58:11.801Z,61.37
2022-08-26T21:02:15.162Z,61.40
2022-08-26T21:06:18.540Z,61.21
2022-08-26T21:10:21.956Z,61.51
2022-08-26T21:14:28.157Z,61.51
2022-08-26T21:18:31.382Z,61.67
2022-08-26T21:22:34.762Z,61.51
2022-08-26T21:26:38.532Z,61.83
2022-08-26T21:30:43.582Z,61.46
2022-08-26T21:34:46.807Z,61.33
2022-08-26T21:38:50.272Z,61.19
2022-08-26T21:42:53.438Z,62.01
2022-08-26T21:46:58.465Z,61.82
2022-08-26T21:51:01.661Z,61.58
2022-08-26T21:55:09.073Z,61.32
2022-08-26T21:59:13.079Z,61.77
2022-08-26T22:03:18.964Z,60.92
2022-08-26T22:07:22.232Z,60.64
2022-08-26T22:11:27.351Z,60.96
2022-08-26T22:15:33.069Z,60.75
2022-08-26T22:19:45.940Z,60.64
2022-08-26T22:23:50.480Z,60.83
2022-08-26T22:27:54.238Z,59.94
2022-08-26T22:31:57.646Z,59.89
2022-08-26T22:36:03.100Z,60.33
2022-08-26T22:40:08.170Z,60.04
2022-08-26T22:44:12.847Z,59.94
2022-08-26T22:48:18.805Z,60.26
2022-08-26T22:52:23.376Z,59.65
2022-08-26T22:56:26.604Z,60.10
2022-08-26T23:00:32.441Z,60.18
2022-08-26T23:04:36.177Z,59.67
2022-08-26T23:08:42.095Z,60.22
2022-08-26T23:12:45.989Z,60.01
2022-08-26T23:16:49.621Z,60.04
2022-08-26T23:20:56.753Z,60.78
2022-08-26T23:25:02.543Z,60.53
2022-08-26T23:29:13.042Z,60.52
2022-08-26T23:33:16.686Z,60.71
2022-08-26T23:37:20.454Z,61.56
2022-08-26T23:41:26.391Z,61.57
2022-08-26T23:45:29.655Z,61.42
2022-08-26T23:49:33.963Z,62.18
2022-08-26T23:53:39.018Z,62.10
2022-08-26T23:57:44.113Z,61.73
